Time;durP1;ratioP1;P1;durP2;ratioP2;P2;SDS_P1;SDS_P2;PMS_P1;PMS_P2;Temp;Humidity;BMP_temperature;BMP_pressure;BME280_temperature;BME280_humidity;BME280_pressure;Samples;Min_cycle;Max_cycle;Signal;HPM_P1;HPM_P2
2021/04/05 00:00:08;;;;;;;;;;;15.70;33.80;;;;;;5052657;28;77797;-70
2021/04/05 00:02:34;;;;;;;;;;;15.60;34.20;;;;;;5052414;28;74629;-71
2021/04/05 00:04:59;;;;;;;;;;;15.60;34.30;;;;;;5053614;27;75716;-72
2021/04/05 00:07:25;;;;;;;;;;;15.50;34.10;;;;;;5053865;28;74942;-73
2021/04/05 00:09:51;;;;;;;;;;;15.50;34.40;;;;;;5052227;28;75495;-72
2021/04/05 00:12:16;;;;;;;;;;;15.50;34.10;;;;;;5053291;27;76973;-72
2021/04/05 00:14:42;;;;;;;;;;;15.50;34.30;;;;;;5053700;27;75803;-72
2021/04/05 00:17:08;;;;;;;;;;;15.40;34.20;;;;;;5053980;28;75329;-72
2021/04/05 00:19:36;;;;;;;;;;;15.40;34.10;;;;;;5051764;28;77702;-72
2021/04/05 00:22:02;;;;;;;;;;;15.40;34.20;;;;;;5052257;28;77793;-71
2021/04/05 00:24:28;;;;;;;;;;;15.30;34.20;;;;;;5053534;28;75365;-71
2021/04/05 00:26:53;;;;;;;;;;;15.30;34.20;;;;;;5053609;28;75080;-71
2021/04/05 00:29:19;;;;;;;;;;;15.30;34.50;;;;;;5053980;28;74393;-70
2021/04/05 00:31:44;;;;;;;;;;;15.30;34.50;;;;;;5053246;28;74439;-70
2021/04/05 00:34:10;;;;;;;;;;;15.20;34.50;;;;;;5051887;28;75344;-71
2021/04/05 00:36:36;;;;;;;;;;;15.20;34.70;;;;;;5053097;28;75699;-72
2021/04/05 00:39:03;;;;;;;;;;;15.20;34.80;;;;;;5053779;28;75255;-71
2021/04/05 00:41:28;;;;;;;;;;;15.20;34.70;;;;;;5052806;28;77474;-73
2021/04/05 00:43:54;;;;;;;;;;;15.20;34.70;;;;;;5051598;28;75770;-74
2021/04/05 00:46:20;;;;;;;;;;;15.10;35.00;;;;;;5053574;28;75615;-74
2021/04/05 00:48:46;;;;;;;;;;;15.10;35.00;;;;;;5053219;28;74532;-75
2021/04/05 00:51:13;;;;;;;;;;;15.00;35.10;;;;;;5053400;28;75715;-73
2021/04/05 00:53:41;;;;;;;;;;;15.00;35.20;;;;;;5053377;28;75654;-71
2021/04/05 00:56:08;;;;;;;;;;;15.00;35.50;;;;;;5053030;28;75742;-71
2021/04/05 00:58:34;;;;;;;;;;;15.00;35.50;;;;;;5052217;28;75320;-73
2021/04/05 01:01:01;;;;;;;;;;;14.90;35.70;;;;;;5051436;28;75943;-73
2021/04/05 01:03:28;;;;;;;;;;;14.90;35.70;;;;;;5052413;28;74412;-73
2021/04/05 01:05:54;;;;;;;;;;;14.90;36.10;;;;;;5052825;28;74529;-72
2021/04/05 01:08:21;;;;;;;;;;;14.90;36.00;;;;;;5053108;28;75187;-73
2021/04/05 01:10:46;;;;;;;;;;;14.90;36.00;;;;;;5052520;28;74493;-71
2021/04/05 01:13:12;;;;;;;;;;;14.80;36.30;;;;;;5051388;28;76540;-71
2021/04/05 01:15:38;;;;;;;;;;;14.80;36.30;;;;;;5053183;28;74379;-71
2021/04/05 01:18:05;;;;;;;;;;;14.80;36.20;;;;;;5052534;28;75850;-73
2021/04/05 01:20:30;;;;;;;;;;;14.80;36.20;;;;;;5051152;28;77287;-73
2021/04/05 01:22:56;;;;;;;;;;;14.70;36.40;;;;;;5050682;28;77416;-75
2021/04/05 01:25:23;;;;;;;;;;;14.70;36.30;;;;;;5053388;28;75136;-75
2021/04/05 01:27:49;;;;;;;;;;;14.70;36.70;;;;;;5051739;28;76352;-73
2021/04/05 01:30:33;;;;;;;;;;;14.60;36.50;;;;;;5052627;28;75453;-74
2021/04/05 01:32:59;;;;;;;;;;;14.60;36.70;;;;;;5052862;28;75233;-74
2021/04/05 01:35:25;;;;;;;;;;;14.60;36.70;;;;;;5051049;28;76928;-72
2021/04/05 01:37:50;;;;;;;;;;;14.50;36.80;;;;;;5052804;28;75744;-72
2021/04/05 01:40:16;;;;;;;;;;;14.60;37.10;;;;;;5050578;28;75733;-72
2021/04/05 01:42:42;;;;;;;;;;;14.50;37.10;;;;;;5051251;28;77799;-73
2021/04/05 01:45:09;;;;;;;;;;;14.50;37.40;;;;;;5052388;28;75826;-72
2021/04/05 01:47:34;;;;;;;;;;;14.50;37.50;;;;;;5052486;28;75215;-73
2021/04/05 01:50:00;;;;;;;;;;;14.40;37.40;;;;;;5052755;28;74418;-72
2021/04/05 01:52:25;;;;;;;;;;;14.40;37.50;;;;;;5050434;28;76449;-72
2021/04/05 01:54:51;;;;;;;;;;;14.40;37.50;;;;;;5050440;28;78200;-72
2021/04/05 01:57:17;;;;;;;;;;;14.40;37.70;;;;;;5052220;28;75791;-72
2021/04/05 01:59:42;;;;;;;;;;;14.40;37.80;;;;;;5050661;28;75407;-72
2021/04/05 02:02:08;;;;;;;;;;;14.40;38.00;;;;;;5052271;28;75270;-72
2021/04/05 02:04:35;;;;;;;;;;;14.40;38.10;;;;;;5050241;28;74691;-72
2021/04/05 02:07:01;;;;;;;;;;;14.40;38.20;;;;;;5050650;28;75492;-72
2021/04/05 02:09:27;;;;;;;;;;;14.30;38.30;;;;;;5051854;28;75174;-73
2021/04/05 02:11:52;;;;;;;;;;;14.30;38.50;;;;;;5052397;28;75565;-74
2021/04/05 02:14:18;;;;;;;;;;;14.20;38.70;;;;;;5050922;28;76479;-74
2021/04/05 02:16:44;;;;;;;;;;;14.20;38.90;;;;;;5054443;28;74419;-75
2021/04/05 02:19:13;;;;;;;;;;;14.20;39.10;;;;;;5053721;28;77830;-74
2021/04/05 02:21:39;;;;;;;;;;;14.20;39.20;;;;;;5054264;28;74594;-75
2021/04/05 02:24:05;;;;;;;;;;;14.10;39.50;;;;;;5055826;28;75339;-74
2021/04/05 02:26:31;;;;;;;;;;;14.10;39.40;;;;;;5055882;28;75686;-75
2021/04/05 02:28:59;;;;;;;;;;;14.00;39.70;;;;;;5056080;28;75300;-74
2021/04/05 02:31:25;;;;;;;;;;;14.00;39.90;;;;;;5055645;28;75245;-75
2021/04/05 02:33:52;;;;;;;;;;;14.00;40.00;;;;;;5056406;28;74529;-75
2021/04/05 02:36:19;;;;;;;;;;;14.00;40.00;;;;;;5055926;28;75643;-75
2021/04/05 02:38:46;;;;;;;;;;;13.90;40.20;;;;;;5054281;28;75623;-76
2021/04/05 02:41:12;;;;;;;;;;;13.90;40.20;;;;;;5054277;28;77348;-77
2021/04/05 02:43:38;;;;;;;;;;;13.90;40.40;;;;;;5053851;28;74713;-76
2021/04/05 02:46:05;;;;;;;;;;;13.80;40.60;;;;;;5055867;28;76020;-76
2021/04/05 02:48:31;;;;;;;;;;;13.80;40.60;;;;;;5055276;28;75266;-76
2021/04/05 02:50:58;;;;;;;;;;;13.80;41.10;;;;;;5054219;28;78198;-76
2021/04/05 02:53:23;;;;;;;;;;;13.70;41.00;;;;;;5055698;28;75273;-76
2021/04/05 02:55:49;;;;;;;;;;;13.70;41.20;;;;;;5055455;28;75541;-76
2021/04/05 02:58:15;;;;;;;;;;;13.70;41.40;;;;;;5053721;28;77715;-70
2021/04/05 03:00:41;;;;;;;;;;;13.60;41.60;;;;;;5055037;28;75171;-71
2021/04/05 03:03:07;;;;;;;;;;;13.60;41.70;;;;;;5053289;28;77405;-71
2021/04/05 03:05:35;;;;;;;;;;;13.50;41.60;;;;;;5055215;28;74511;-71
2021/04/05 03:08:01;;;;;;;;;;;13.50;41.60;;;;;;5053834;28;77369;-72
2021/04/05 03:10:28;;;;;;;;;;;13.50;41.50;;;;;;5054727;28;75914;-73
2021/04/05 03:12:56;;;;;;;;;;;13.50;41.70;;;;;;5054679;27;74682;-73
2021/04/05 03:15:23;;;;;;;;;;;13.50;41.70;;;;;;5054990;28;75759;-74
2021/04/05 03:17:50;;;;;;;;;;;13.50;41.70;;;;;;5055193;28;74492;-72
2021/04/05 03:20:17;;;;;;;;;;;13.60;41.80;;;;;;5052969;28;77405;-73
2021/04/05 03:22:43;;;;;;;;;;;13.60;41.80;;;;;;5053378;28;77939;-72
2021/04/05 03:25:16;;;;;;;;;;;13.50;41.90;;;;;;5053945;27;75210;-73
2021/04/05 03:27:42;;;;;;;;;;;13.50;42.00;;;;;;5053267;28;74587;-73
2021/04/05 03:30:10;;;;;;;;;;;13.40;42.50;;;;;;5052620;28;77305;-72
2021/04/05 03:32:36;;;;;;;;;;;13.50;42.50;;;;;;5053177;28;75810;-72
2021/04/05 03:35:04;;;;;;;;;;;13.40;42.60;;;;;;5052690;28;78419;-73
2021/04/05 03:37:33;;;;;;;;;;;13.40;42.70;;;;;;5054518;27;75385;-73
2021/04/05 03:39:58;;;;;;;;;;;13.40;42.60;;;;;;5054714;28;75177;-73
2021/04/05 03:42:32;;;;;;;;;;;13.40;42.90;;;;;;5054300;28;75341;-73
2021/04/05 03:45:03;;;;;;;;;;;13.40;43.10;;;;;;5054277;28;74656;-73
2021/04/05 03:47:33;;;;;;;;;;;13.20;43.10;;;;;;5052773;28;76440;-73
2021/04/05 03:50:06;;;;;;;;;;;13.20;43.30;;;;;;5054797;28;75243;-73
2021/04/05 03:52:36;;;;;;;;;;;13.20;43.50;;;;;;5052405;28;75259;-72
2021/04/05 03:55:06;;;;;;;;;;;13.10;43.60;;;;;;5054465;28;75081;-74
2021/04/05 03:57:34;;;;;;;;;;;13.10;43.70;;;;;;5054188;28;76290;-72
2021/04/05 04:00:01;;;;;;;;;;;13.00;43.80;;;;;;5053056;28;77194;-74
2021/04/05 04:02:30;;;;;;;;;;;13.00;43.80;;;;;;5052887;28;78580;-75
2021/04/05 04:05:03;;;;;;;;;;;13.00;44.10;;;;;;5053073;28;75686;-74
2021/04/05 04:07:38;;;;;;;;;;;12.90;44.10;;;;;;5053071;28;75466;-75
2021/04/05 04:10:08;;;;;;;;;;;12.90;44.40;;;;;;5052359;28;75554;-74
2021/04/05 04:12:36;;;;;;;;;;;12.80;44.30;;;;;;5052528;28;75346;-74
2021/04/05 04:15:02;;;;;;;;;;;12.80;44.50;;;;;;5052329;28;75483;-72
2021/04/05 04:17:31;;;;;;;;;;;12.70;44.80;;;;;;5054181;28;77048;-71
2021/04/05 04:19:58;;;;;;;;;;;12.70;44.70;;;;;;5052006;28;74768;-72
2021/04/05 04:22:23;;;;;;;;;;;12.60;44.70;;;;;;5053609;28;74494;-72
2021/04/05 04:24:49;;;;;;;;;;;12.50;44.90;;;;;;5053540;28;75186;-74
2021/04/05 04:27:15;;;;;;;;;;;12.50;45.00;;;;;;5053246;27;76730;-71
2021/04/05 04:29:41;;;;;;;;;;;12.50;45.20;;;;;;5053912;28;75669;-73
2021/04/05 04:32:07;;;;;;;;;;;12.50;45.30;;;;;;5053717;28;75104;-71
2021/04/05 04:34:34;;;;;;;;;;;12.50;45.30;;;;;;5052340;28;75433;-72
2021/04/05 04:37:03;;;;;;;;;;;12.40;45.40;;;;;;5051241;27;75742;-72
2021/04/05 04:39:29;;;;;;;;;;;12.40;45.60;;;;;;5051724;28;76543;-72
2021/04/05 04:41:55;;;;;;;;;;;12.40;45.60;;;;;;5051795;28;76362;-73
2021/04/05 04:44:20;;;;;;;;;;;12.40;45.80;;;;;;5051626;28;76071;-72
2021/04/05 04:46:46;;;;;;;;;;;12.40;45.70;;;;;;5053597;28;74458;-73
2021/04/05 04:49:12;;;;;;;;;;;12.40;45.90;;;;;;5051222;28;76973;-74
2021/04/05 04:51:38;;;;;;;;;;;12.40;46.00;;;;;;5051647;28;76058;-73
2021/04/05 04:54:05;;;;;;;;;;;12.40;46.10;;;;;;5054334;28;75258;-73
2021/04/05 04:56:31;;;;;;;;;;;12.30;46.10;;;;;;5053220;28;74975;-72
2021/04/05 04:59:00;;;;;;;;;;;12.30;46.40;;;;;;5051489;28;76558;-73
2021/04/05 05:01:26;;;;;;;;;;;12.30;46.70;;;;;;5053139;28;75244;-73
2021/04/05 05:03:53;;;;;;;;;;;12.20;46.50;;;;;;5051186;28;77320;-72
2021/04/05 05:06:21;;;;;;;;;;;12.20;46.60;;;;;;5052991;28;74431;-73
2021/04/05 05:08:47;;;;;;;;;;;12.10;46.70;;;;;;5051897;28;76963;-74
2021/04/05 05:11:12;;;;;;;;;;;12.10;46.90;;;;;;5053389;28;74990;-74
2021/04/05 05:13:38;;;;;;;;;;;12.10;47.20;;;;;;5053535;28;75035;-74
2021/04/05 05:16:04;;;;;;;;;;;12.00;47.20;;;;;;5053723;28;75129;-74
2021/04/05 05:18:30;;;;;;;;;;;12.00;47.20;;;;;;5054502;28;75191;-75
2021/04/05 05:20:56;;;;;;;;;;;12.00;47.40;;;;;;5053322;28;76461;-74
2021/04/05 05:23:22;;;;;;;;;;;11.90;47.60;;;;;;5054136;28;74532;-73
2021/04/05 05:25:48;;;;;;;;;;;11.90;48.40;;;;;;5053106;28;75778;-74
2021/04/05 05:28:15;;;;;;;;;;;11.80;48.00;;;;;;5051580;28;78276;-73
2021/04/05 05:30:41;;;;;;;;;;;11.70;48.00;;;;;;5053126;28;75168;-72
2021/04/05 05:33:07;;;;;;;;;;;11.60;48.60;;;;;;5052784;28;76713;-73
2021/04/05 05:35:34;;;;;;;;;;;11.50;49.10;;;;;;5053015;28;74928;-73
2021/04/05 05:38:00;;;;;;;;;;;11.50;48.80;;;;;;5052235;28;78276;-74
2021/04/05 05:40:26;;;;;;;;;;;11.40;49.40;;;;;;5051540;28;78098;-74
2021/04/05 05:43:04;;;;;;;;;;;11.40;49.30;;;;;;5053491;28;75369;-74
2021/04/05 05:45:32;;;;;;;;;;;11.30;49.30;;;;;;5053286;28;74852;-74
2021/04/05 05:48:18;;;;;;;;;;;11.30;49.40;;;;;;5051249;27;78172;-74
2021/04/05 05:51:05;;;;;;;;;;;11.20;49.50;;;;;;5030957;28;74689;-74
2021/04/05 05:53:49;;;;;;;;;;;11.20;49.60;;;;;;5052643;28;75686;-73
2021/04/05 05:56:27;;;;;;;;;;;11.20;49.50;;;;;;5052823;28;75269;-74
2021/04/05 05:59:16;;;;;;;;;;;11.20;49.60;;;;;;5050979;28;77783;-74
2021/04/05 06:01:51;;;;;;;;;;;11.30;49.80;;;;;;5053103;28;75712;-74
2021/04/05 06:04:22;;;;;;;;;;;11.30;49.80;;;;;;5051255;28;75725;-75
2021/04/05 06:07:03;;;;;;;;;;;11.30;49.70;;;;;;5053667;28;75239;-75
2021/04/05 06:09:32;;;;;;;;;;;11.30;50.20;;;;;;5051380;28;75620;-74
2021/04/05 06:12:13;;;;;;;;;;;11.30;49.70;;;;;;5050867;28;76367;-74
2021/04/05 06:14:46;;;;;;;;;;;11.30;49.80;;;;;;5051159;28;77140;-74
2021/04/05 06:17:31;;;;;;;;;;;11.40;49.80;;;;;;5050852;28;76106;-74
2021/04/05 06:20:00;;;;;;;;;;;11.40;49.80;;;;;;5044590;28;74795;-73
2021/04/05 06:22:28;;;;;;;;;;;11.40;49.80;;;;;;5051124;28;76857;-73
2021/04/05 06:24:58;;;;;;;;;;;11.40;49.80;;;;;;5053298;28;75065;-74
2021/04/05 06:27:28;;;;;;;;;;;11.30;50.60;;;;;;5051855;28;75412;-75
2021/04/05 06:30:03;;;;;;;;;;;11.30;50.40;;;;;;5053321;28;76396;-74
2021/04/05 06:32:42;;;;;;;;;;;11.20;50.30;;;;;;5055103;28;74870;-75
2021/04/05 06:35:07;;;;;;;;;;;11.30;50.60;;;;;;5055962;28;76107;-74
2021/04/05 06:37:36;;;;;;;;;;;11.30;50.60;;;;;;5055106;28;74507;-74
2021/04/05 06:40:04;;;;;;;;;;;11.20;50.90;;;;;;5052737;28;76745;-74
2021/04/05 06:42:53;;;;;;;;;;;11.20;51.00;;;;;;5052778;28;76448;-74
2021/04/05 06:45:28;;;;;;;;;;;11.20;51.50;;;;;;5052573;28;75782;-75
2021/04/05 06:48:12;;;;;;;;;;;11.20;50.90;;;;;;5054623;28;75793;-74
2021/04/05 06:50:59;;;;;;;;;;;11.20;50.60;;;;;;5055735;28;74574;-74
2021/04/05 06:53:31;;;;;;;;;;;11.30;50.40;;;;;;5046489;28;74731;-71
2021/04/05 06:55:57;;;;;;;;;;;11.40;50.50;;;;;;5053070;28;74633;-71
2021/04/05 06:58:24;;;;;;;;;;;11.40;50.40;;;;;;5051301;28;75325;-75
2021/04/05 07:01:04;;;;;;;;;;;11.40;50.50;;;;;;5053780;27;75639;-71
2021/04/05 07:03:33;;;;;;;;;;;11.40;50.30;;;;;;5055286;28;75454;-71
2021/04/05 07:06:07;;;;;;;;;;;11.40;50.40;;;;;;5058318;28;74466;-71
2021/04/05 07:08:33;;;;;;;;;;;11.50;50.50;;;;;;5054933;28;78097;-73
2021/04/05 07:11:07;;;;;;;;;;;11.60;50.80;;;;;;5056172;28;74382;-72
2021/04/05 07:13:37;;;;;;;;;;;11.60;50.20;;;;;;5053975;28;75271;-72
2021/04/05 07:16:13;;;;;;;;;;;11.60;50.30;;;;;;5054029;28;78511;-74
2021/04/05 07:18:57;;;;;;;;;;;11.60;50.00;;;;;;5055604;28;75441;-76
2021/04/05 07:21:26;;;;;;;;;;;11.70;49.90;;;;;;5053620;28;77230;-73
2021/04/05 07:23:51;;;;;;;;;;;11.80;49.70;;;;;;5055255;28;75500;-71
2021/04/05 07:26:20;;;;;;;;;;;11.90;49.60;;;;;;5053082;28;77208;-71
2021/04/05 07:29:09;;;;;;;;;;;11.90;49.30;;;;;;5054059;28;75845;-72
2021/04/05 07:31:34;;;;;;;;;;;12.10;49.10;;;;;;5054599;28;77436;-71
2021/04/05 07:34:10;;;;;;;;;;;12.20;48.90;;;;;;5052833;28;77023;-72
2021/04/05 07:36:41;;;;;;;;;;;12.40;48.70;;;;;;5053258;28;76949;-71
2021/04/05 07:39:09;;;;;;;;;;;12.50;48.60;;;;;;5054628;28;74567;-74
2021/04/05 07:41:44;;;;;;;;;;;12.60;48.20;;;;;;5054081;27;74558;-73
2021/04/05 07:44:21;;;;;;;;;;;12.70;47.90;;;;;;5053213;28;75467;-73
2021/04/05 07:46:48;;;;;;;;;;;12.90;47.60;;;;;;5054643;28;76006;-72
2021/04/05 07:49:27;;;;;;;;;;;13.00;47.20;;;;;;5054509;28;74617;-71
2021/04/05 07:52:00;;;;;;;;;;;13.10;47.00;;;;;;5052601;28;76678;-74
2021/04/05 07:54:32;;;;;;;;;;;13.20;46.80;;;;;;5054278;28;75096;-73
2021/04/05 07:57:10;;;;;;;;;;;13.40;46.60;;;;;;5054605;28;75170;-72
2021/04/05 07:59:54;;;;;;;;;;;13.50;46.40;;;;;;5053996;28;74966;-77
2021/04/05 08:02:38;;;;;;;;;;;13.60;46.30;;;;;;5051960;28;77849;-72
2021/04/05 08:05:07;;;;;;;;;;;13.70;46.20;;;;;;5048877;27;75624;-74
2021/04/05 08:07:48;;;;;;;;;;;13.90;46.00;;;;;;5041867;28;75817;-73
2021/04/05 08:10:16;;;;;;;;;;;13.90;45.80;;;;;;5033491;28;75593;-74
2021/04/05 08:12:42;;;;;;;;;;;14.00;45.90;;;;;;5032891;28;74460;-75
2021/04/05 08:15:23;;;;;;;;;;;14.20;46.00;;;;;;5031180;28;78217;-75
2021/04/05 08:18:07;;;;;;;;;;;14.30;45.60;;;;;;5031843;28;75391;-75
2021/04/05 08:20:53;;;;;;;;;;;14.40;45.60;;;;;;5033195;28;74576;-74
2021/04/05 08:23:18;;;;;;;;;;;14.60;45.90;;;;;;5031611;28;75437;-75
2021/04/05 08:26:00;;;;;;;;;;;14.70;45.40;;;;;;5030546;28;75647;-73
2021/04/05 08:28:55;;;;;;;;;;;14.80;45.60;;;;;;5030866;28;75518;-74
2021/04/05 08:31:21;;;;;;;;;;;14.90;45.40;;;;;;5025698;28;74705;-73
2021/04/05 08:33:53;;;;;;;;;;;14.90;45.60;;;;;;5032440;28;74675;-73
2021/04/05 08:36:32;;;;;;;;;;;14.90;45.60;;;;;;5042711;28;76414;-73
2021/04/05 08:39:05;;;;;;;;;;;15.00;45.80;;;;;;5054226;28;75510;-73
2021/04/05 08:41:49;;;;;;;;;;;15.10;46.20;;;;;;5036025;28;75095;-72
2021/04/05 08:44:24;;;;;;;;;;;15.20;46.20;;;;;;5030571;28;77322;-71
2021/04/05 08:46:54;;;;;;;;;;;15.40;46.20;;;;;;5031651;28;77577;-72
2021/04/05 08:49:21;;;;;;;;;;;15.50;46.20;;;;;;5031175;28;77437;-71
2021/04/05 08:51:49;;;;;;;;;;;15.60;46.60;;;;;;5031708;28;75024;-72
2021/04/05 08:54:18;;;;;;;;;;;15.60;46.20;;;;;;5031947;28;75368;-70
2021/04/05 08:56:46;;;;;;;;;;;15.70;46.20;;;;;;5031691;28;75256;-71
2021/04/05 08:59:14;;;;;;;;;;;15.90;46.80;;;;;;5032097;28;74831;-70
2021/04/05 09:01:42;;;;;;;;;;;15.90;47.30;;;;;;5031633;28;75221;-71
2021/04/05 09:04:09;;;;;;;;;;;16.10;47.10;;;;;;5029614;28;76967;-70
2021/04/05 09:06:38;;;;;;;;;;;16.20;47.50;;;;;;5032972;28;74396;-71
2021/04/05 09:09:06;;;;;;;;;;;16.40;48.30;;;;;;5032925;28;74997;-72
2021/04/05 09:11:37;;;;;;;;;;;16.40;47.70;;;;;;5032146;28;94779;-71
2021/04/05 09:14:03;;;;;;;;;;;16.50;47.20;;;;;;5031537;28;75749;-73
2021/04/05 09:16:47;;;;;;;;;;;16.60;46.90;;;;;;5032000;28;76769;-72
2021/04/05 09:19:31;;;;;;;;;;;16.80;46.70;;;;;;5031720;28;77689;-72
2021/04/05 09:21:57;;;;;;;;;;;17.00;46.50;;;;;;5033103;28;75235;-71
2021/04/05 09:24:41;;;;;;;;;;;17.20;46.00;;;;;;5031127;28;76515;-72
2021/04/05 09:27:10;;;;;;;;;;;17.30;45.90;;;;;;5032833;28;75135;-70
2021/04/05 09:29:47;;;;;;;;;;;17.40;45.30;;;;;;5032712;28;75290;-73
2021/04/05 09:32:25;;;;;;;;;;;17.60;45.20;;;;;;5032631;28;74438;-72
2021/04/05 09:35:00;;;;;;;;;;;17.80;44.90;;;;;;5031123;28;75510;-73
2021/04/05 09:37:44;;;;;;;;;;;18.00;44.70;;;;;;5032794;28;75164;-72
2021/04/05 09:40:15;;;;;;;;;;;18.20;44.40;;;;;;5031111;28;77742;-73
2021/04/05 09:42:47;;;;;;;;;;;18.40;44.60;;;;;;5032569;28;75169;-73
2021/04/05 09:45:15;;;;;;;;;;;18.60;44.00;;;;;;5032369;28;75181;-71
2021/04/05 09:47:43;;;;;;;;;;;18.80;43.80;;;;;;5032452;28;75154;-71
2021/04/05 09:50:12;;;;;;;;;;;19.00;43.50;;;;;;5032113;28;75227;-71
2021/04/05 09:52:40;;;;;;;;;;;19.20;43.10;;;;;;5032629;28;74733;-71
2021/04/05 09:55:16;;;;;;;;;;;19.40;43.30;;;;;;5032224;28;75911;-72
2021/04/05 09:57:46;;;;;;;;;;;19.50;42.70;;;;;;5032175;28;75968;-71
2021/04/05 10:00:18;;;;;;;;;;;19.70;42.90;;;;;;5032391;28;74415;-73
2021/04/05 10:02:44;;;;;;;;;;;19.90;42.70;;;;;;5030590;28;75306;-71
2021/04/05 10:05:11;;;;;;;;;;;20.10;42.40;;;;;;5032207;28;75076;-70
2021/04/05 10:07:39;;;;;;;;;;;20.20;42.40;;;;;;5030545;28;78014;-72
2021/04/05 10:10:05;;;;;;;;;;;20.40;41.90;;;;;;5031918;28;76037;-72
2021/04/05 10:12:32;;;;;;;;;;;20.50;42.20;;;;;;5032216;28;74533;-73
2021/04/05 10:14:57;;;;;;;;;;;20.80;42.10;;;;;;5032245;28;75641;-72
2021/04/05 10:17:24;;;;;;;;;;;20.90;41.80;;;;;;5030447;28;75396;-72
2021/04/05 10:19:53;;;;;;;;;;;21.10;41.90;;;;;;5031999;28;75272;-72
2021/04/05 10:22:20;;;;;;;;;;;21.40;40.90;;;;;;5030216;28;75927;-73
2021/04/05 10:24:46;;;;;;;;;;;21.60;40.90;;;;;;5030162;28;75026;-73
2021/04/05 10:27:14;;;;;;;;;;;21.80;40.30;;;;;;5030121;28;75451;-72
2021/04/05 10:29:41;;;;;;;;;;;22.00;40.20;;;;;;5031835;28;75076;-73
2021/04/05 10:32:07;;;;;;;;;;;22.20;39.90;;;;;;5030307;28;78598;-72
2021/04/05 10:34:37;;;;;;;;;;;22.40;39.60;;;;;;5031625;28;75741;-71
2021/04/05 10:37:08;;;;;;;;;;;22.50;39.10;;;;;;5034957;28;75163;-71
2021/04/05 10:39:34;;;;;;;;;;;22.70;39.00;;;;;;5035396;28;75225;-72
2021/04/05 10:42:04;;;;;;;;;;;23.00;38.90;;;;;;5033302;28;77271;-70
2021/04/05 10:44:31;;;;;;;;;;;23.20;38.10;;;;;;5035142;28;75289;-71
2021/04/05 10:46:59;;;;;;;;;;;23.40;38.60;;;;;;5035065;28;74410;-73
2021/04/05 10:49:27;;;;;;;;;;;23.70;37.30;;;;;;5035151;28;75368;-73
2021/04/05 10:51:57;;;;;;;;;;;24.10;37.00;;;;;;5034601;28;75221;-74
2021/04/05 10:54:29;;;;;;;;;;;24.50;36.70;;;;;;5033491;28;78209;-72
2021/04/05 10:57:02;;;;;;;;;;;24.90;35.90;;;;;;5033026;28;78338;-73
2021/04/05 10:59:32;;;;;;;;;;;25.20;34.90;;;;;;5033260;28;77464;-71
2021/04/05 11:01:59;;;;;;;;;;;25.30;35.20;;;;;;5033186;28;75880;-73
2021/04/05 11:04:26;;;;;;;;;;;25.80;34.90;;;;;;5034189;28;75520;-74
2021/04/05 11:06:52;;;;;;;;;;;26.30;34.20;;;;;;5037311;27;75897;-73
2021/04/05 11:09:19;;;;;;;;;;;26.90;33.30;;;;;;5054971;27;77040;-72
2021/04/05 11:11:49;;;;;;;;;;;27.10;32.70;;;;;;5052433;28;77061;-73
2021/04/05 11:14:16;;;;;;;;;;;27.40;32.70;;;;;;5053232;28;77579;-72
2021/04/05 11:16:52;;;;;;;;;;;28.10;31.70;;;;;;5054369;28;75282;-72
2021/04/05 11:19:31;;;;;;;;;;;29.00;31.10;;;;;;5054916;27;75785;-72
2021/04/05 11:21:57;;;;;;;;;;;30.00;29.20;;;;;;5053081;28;75453;-71
2021/04/05 11:24:43;;;;;;;;;;;31.00;28.10;;;;;;5072127;27;74579;-74
2021/04/05 11:27:10;;;;;;;;;;;31.90;27.20;;;;;;5075627;27;77835;-73
2021/04/05 11:29:42;;;;;;;;;;;32.70;26.80;;;;;;5064414;27;75775;-74
2021/04/05 11:32:15;;;;;;;;;;;33.40;25.70;;;;;;5068873;27;78106;-74
2021/04/05 11:34:41;;;;;;;;;;;33.60;25.00;;;;;;5075519;27;74561;-76
2021/04/05 11:37:14;;;;;;;;;;;34.10;24.80;;;;;;5059257;27;74541;-71
2021/04/05 11:39:44;;;;;;;;;;;35.30;24.20;;;;;;5058616;28;77392;-72
2021/04/05 11:42:10;;;;;;;;;;;36.50;23.20;;;;;;5059876;27;75337;-74
2021/04/05 11:44:42;;;;;;;;;;;37.70;21.70;;;;;;5073399;27;75621;-71
2021/04/05 11:47:09;;;;;;;;;;;38.20;21.10;;;;;;5072975;27;75636;-73
2021/04/05 11:49:34;;;;;;;;;;;38.60;21.00;;;;;;5074807;27;75141;-73
2021/04/05 11:52:16;;;;;;;;;;;39.10;19.20;;;;;;5065294;27;74971;-71
2021/04/05 11:54:47;;;;;;;;;;;39.70;18.50;;;;;;5060710;27;75242;-75
2021/04/05 11:57:13;;;;;;;;;;;39.70;18.60;;;;;;5061624;27;75745;-73
2021/04/05 11:59:43;;;;;;;;;;;40.10;18.50;;;;;;5058480;27;77532;-71
2021/04/05 12:02:17;;;;;;;;;;;41.00;18.50;;;;;;5052148;28;75692;-74
2021/04/05 12:05:15;;;;;;;;;;;41.70;18.00;;;;;;5049268;28;75687;-73
2021/04/05 12:07:44;;;;;;;;;;;42.20;18.00;;;;;;5039828;28;77228;-74
2021/04/05 12:10:18;;;;;;;;;;;42.70;17.00;;;;;;5052101;28;77089;-67
2021/04/05 12:12:56;;;;;;;;;;;42.30;17.30;;;;;;5033984;28;75213;-62
2021/04/05 12:15:22;;;;;;;;;;;42.70;17.40;;;;;;5034411;28;75042;-66
2021/04/05 12:17:48;;;;;;;;;;;43.30;17.40;;;;;;5034130;28;74469;-64
2021/04/05 12:20:15;;;;;;;;;;;42.70;16.90;;;;;;5033528;28;74487;-61
2021/04/05 12:22:42;;;;;;;;;;;39.60;18.00;;;;;;5032550;28;77036;-66
2021/04/05 12:25:08;;;;;;;;;;;35.90;20.90;;;;;;5033337;28;75019;-60
2021/04/05 12:27:37;;;;;;;;;;;33.20;23.10;;;;;;5033766;28;75392;-66
2021/04/05 12:30:09;;;;;;;;;;;31.40;24.50;;;;;;5033246;28;75504;-65
2021/04/05 12:32:37;;;;;;;;;;;30.30;25.80;;;;;;5033279;28;76964;-64
2021/04/05 12:35:04;;;;;;;;;;;29.30;26.20;;;;;;5033451;28;75264;-63
2021/04/05 12:37:31;;;;;;;;;;;28.70;26.20;;;;;;5033489;28;77003;-66
2021/04/05 12:40:00;;;;;;;;;;;28.40;26.50;;;;;;5037064;28;74744;-64
2021/04/05 12:42:31;;;;;;;;;;;27.90;27.50;;;;;;5053255;28;75162;-67
2021/04/05 12:44:58;;;;;;;;;;;27.70;27.80;;;;;;5053013;28;75240;-63
2021/04/05 12:47:28;;;;;;;;;;;29.10;27.80;;;;;;5053707;28;74990;-64
2021/04/05 12:49:55;;;;;;;;;;;32.50;24.50;;;;;;5053834;28;75862;-64
2021/04/05 12:52:21;;;;;;;;;;;35.20;21.40;;;;;;5051346;28;78105;-71
2021/04/05 12:54:48;;;;;;;;;;;36.90;20.80;;;;;;5053435;27;75379;-62
2021/04/05 12:57:15;;;;;;;;;;;39.40;19.20;;;;;;5052899;27;75692;-63
2021/04/05 12:59:41;;;;;;;;;;;41.60;17.60;;;;;;5051638;27;75301;-70
2021/04/05 13:02:10;;;;;;;;;;;42.80;16.60;;;;;;5053545;27;75203;-67
2021/04/05 13:04:37;;;;;;;;;;;41.80;16.00;;;;;;5052429;28;75356;-65
2021/04/05 13:07:29;;;;;;;;;;;39.90;16.80;;;;;;5053186;27;74582;-61
2021/04/05 13:09:58;;;;;;;;;;;37.70;18.70;;;;;;5048045;28;78628;-71
2021/04/05 13:12:26;;;;;;;;;;;35.20;21.40;;;;;;5052983;27;75222;-66
2021/04/05 13:14:55;;;;;;;;;;;33.30;22.40;;;;;;5053082;27;74591;-59
2021/04/05 13:17:25;;;;;;;;;;;31.80;23.40;;;;;;5051306;28;76819;-68
2021/04/05 13:19:50;;;;;;;;;;;30.70;24.80;;;;;;5053037;27;75136;-65
2021/04/05 13:22:17;;;;;;;;;;;30.00;24.90;;;;;;5051493;28;75384;-63
2021/04/05 13:24:49;;;;;;;;;;;29.00;24.80;;;;;;5053737;27;74419;-65
2021/04/05 13:27:21;;;;;;;;;;;28.10;25.70;;;;;;5052885;27;74534;-63
2021/04/05 13:29:47;;;;;;;;;;;27.60;26.60;;;;;;5052575;27;76588;-60
2021/04/05 13:32:14;;;;;;;;;;;27.30;26.00;;;;;;5052740;27;75323;-61
2021/04/05 13:34:40;;;;;;;;;;;27.20;26.80;;;;;;5052656;27;75199;-68
2021/04/05 13:37:08;;;;;;;;;;;27.30;26.30;;;;;;5051119;28;76225;-65
2021/04/05 13:39:34;;;;;;;;;;;27.90;25.70;;;;;;5050655;28;76526;-71
2021/04/05 13:42:13;;;;;;;;;;;28.30;25.10;;;;;;5052411;28;74587;-62
2021/04/05 13:44:39;;;;;;;;;;;28.70;24.90;;;;;;5052270;28;75244;-61
2021/04/05 13:47:06;;;;;;;;;;;28.90;25.10;;;;;;5051257;28;78573;-65
2021/04/05 13:49:47;;;;;;;;;;;29.30;24.50;;;;;;5052247;27;76651;-66
2021/04/05 13:52:17;;;;;;;;;;;30.50;22.90;;;;;;5052318;27;76445;-66
2021/04/05 13:54:44;;;;;;;;;;;32.30;21.70;;;;;;5051281;28;75387;-63
2021/04/05 13:57:11;;;;;;;;;;;33.50;20.80;;;;;;5052142;28;75088;-62
2021/04/05 13:59:37;;;;;;;;;;;32.90;20.40;;;;;;5052529;28;75378;-68
2021/04/05 14:02:04;;;;;;;;;;;31.90;21.00;;;;;;5052202;27;76249;-62
2021/04/05 14:04:38;;;;;;;;;;;31.50;20.80;;;;;;5052205;28;75331;-62
2021/04/05 14:07:04;;;;;;;;;;;33.50;19.00;;;;;;5052199;27;75176;-63
2021/04/05 14:09:31;;;;;;;;;;;35.50;15.50;;;;;;5054244;27;75285;-65
2021/04/05 14:11:58;;;;;;;;;;;34.50;17.90;;;;;;5058603;27;76639;-62
2021/04/05 14:14:25;;;;;;;;;;;33.70;18.50;;;;;;5059422;27;75016;-65
2021/04/05 14:16:51;;;;;;;;;;;33.60;19.00;;;;;;5059085;27;75948;-65
2021/04/05 14:19:26;;;;;;;;;;;33.40;19.10;;;;;;5057313;28;78052;-60
2021/04/05 14:22:03;;;;;;;;;;;33.50;19.70;;;;;;5059470;28;75406;-62
2021/04/05 14:24:30;;;;;;;;;;;34.00;19.20;;;;;;5059279;27;75273;-67
2021/04/05 14:26:58;;;;;;;;;;;33.10;19.10;;;;;;5056336;28;75862;-64
2021/04/05 14:29:29;;;;;;;;;;;32.00;20.10;;;;;;5057172;28;76355;-68